createdAt,value
2017-09-24T00:00:42.222Z,12.3
2017-09-24T00:01:52.497Z,12.4
2017-09-24T00:03:02.767Z,12.35
2017-09-24T00:04:13.047Z,12.33
2017-09-24T00:05:23.324Z,12.3
2017-09-24T00:06:32.960Z,12.33
2017-09-24T00:07:42.918Z,12.32
2017-09-24T00:08:53.194Z,12.37
2017-09-24T00:10:03.152Z,12.35
2017-09-24T00:11:13.106Z,12.32
2017-09-24T00:12:23.380Z,12.36
2017-09-24T00:13:33.366Z,12.35
2017-09-24T00:14:43.007Z,12.36
2017-09-24T00:15:52.989Z,12.44
2017-09-24T00:17:02.963Z,12.43
2017-09-24T00:18:12.275Z,12.4
2017-09-24T00:19:22.551Z,12.4
2017-09-24T00:20:32.827Z,12.44
2017-09-24T00:21:43.105Z,12.47
2017-09-24T00:22:53.381Z,12.43
2017-09-24T00:24:03.653Z,12.39
2017-09-24T00:25:13.926Z,12.47
2017-09-24T00:26:23.889Z,12.47
2017-09-24T00:27:34.169Z,12.48
2017-09-24T00:28:43.804Z,12.43
2017-09-24T00:29:54.081Z,12.44
2017-09-24T00:31:04.033Z,12.53
2017-09-24T00:32:13.668Z,12.5
2017-09-24T00:33:23.623Z,12.53
2017-09-24T00:34:33.897Z,12.47
2017-09-24T00:35:43.851Z,12.5
2017-09-24T00:36:53.482Z,12.51
2017-09-24T00:38:03.437Z,12.43
2017-09-24T00:39:13.392Z,12.5
2017-09-24T00:40:23.025Z,12.47
2017-09-24T00:41:33.305Z,12.47
2017-09-24T00:42:43.620Z,12.51
2017-09-24T00:43:53.571Z,12.55
2017-09-24T00:45:03.535Z,12.54
2017-09-24T00:46:13.174Z,12.47
2017-09-24T00:47:23.482Z,12.48
2017-09-24T00:48:33.763Z,12.5
2017-09-24T00:49:44.037Z,12.48
2017-09-24T00:50:54.320Z,12.45
2017-09-24T00:52:04.279Z,12.44
2017-09-24T00:53:14.556Z,12.54
2017-09-24T00:54:24.848Z,12.39
2017-09-24T00:55:35.120Z,12.54
2017-09-24T00:56:44.752Z,12.47
2017-09-24T00:57:55.025Z,12.53
2017-09-24T00:59:05.305Z,12.43
2017-09-24T01:00:15.572Z,12.47
2017-09-24T01:01:25.851Z,12.5
2017-09-24T01:02:35.811Z,12.45
2017-09-24T01:03:45.771Z,12.5
2017-09-24T01:04:55.724Z,12.45
2017-09-24T01:06:05.366Z,12.5
2017-09-24T01:07:15.317Z,12.44
2017-09-24T01:08:25.599Z,12.39
2017-09-24T01:09:35.547Z,12.5
2017-09-24T01:10:45.545Z,12.5
2017-09-24T01:11:55.834Z,12.5
2017-09-24T01:13:06.114Z,12.45
2017-09-24T01:14:16.084Z,12.48
2017-09-24T01:15:26.061Z,12.47
2017-09-24T01:16:36.336Z,12.47
2017-09-24T01:17:46.288Z,12.51
2017-09-24T01:18:55.924Z,12.53
2017-09-24T01:20:06.133Z,12.54
2017-09-24T01:21:16.089Z,12.55
2017-09-24T01:22:26.358Z,12.47
2017-09-24T01:23:36.311Z,12.54
2017-09-24T01:24:45.954Z,12.5
2017-09-24T01:25:56.228Z,12.54
2017-09-24T01:27:06.510Z,12.54
2017-09-24T01:28:16.784Z,12.51
2017-09-24T01:29:27.057Z,12.51
2017-09-24T01:30:37.379Z,12.57
2017-09-24T01:31:47.332Z,12.53
2017-09-24T01:32:57.299Z,12.58
2017-09-24T01:34:07.252Z,12.45
2017-09-24T01:35:17.540Z,12.54
2017-09-24T01:36:27.495Z,12.54
2017-09-24T01:37:37.775Z,12.54
2017-09-24T01:38:47.730Z,12.48
2017-09-24T01:39:58.008Z,12.61
2017-09-24T01:41:07.957Z,12.55
2017-09-24T01:42:17.912Z,12.5
2017-09-24T01:43:27.866Z,12.48
2017-09-24T01:44:38.145Z,12.48
2017-09-24T01:45:48.429Z,12.53
2017-09-24T01:46:58.701Z,12.51
2017-09-24T01:48:08.651Z,12.51
2017-09-24T01:49:18.927Z,12.53
2017-09-24T01:50:29.204Z,12.47
2017-09-24T01:51:39.487Z,12.53
2017-09-24T01:52:49.441Z,12.44
2017-09-24T01:53:59.721Z,12.45
2017-09-24T01:55:09.677Z,12.47
2017-09-24T01:56:19.949Z,12.4
2017-09-24T01:57:29.899Z,12.43
2017-09-24T01:58:39.858Z,12.47
2017-09-24T01:59:50.136Z,12.44
2017-09-24T02:01:00.096Z,12.53
2017-09-24T02:02:09.409Z,12.54
2017-09-24T02:03:19.361Z,12.43
2017-09-24T02:04:29.638Z,12.47
2017-09-24T02:05:39.588Z,12.44
2017-09-24T02:06:50.019Z,12.51
2017-09-24T02:08:00.289Z,12.48
2017-09-24T02:09:10.562Z,12.47
2017-09-24T02:10:20.516Z,12.48
2017-09-24T02:11:30.467Z,12.53
2017-09-24T02:12:44.750Z,12.48
2017-09-24T02:13:55.031Z,12.45
2017-09-24T02:15:05.307Z,12.48
2017-09-24T02:16:15.588Z,12.48
2017-09-24T02:17:25.872Z,12.48
2017-09-24T02:18:36.393Z,12.47
2017-09-24T02:19:46.355Z,12.53
2017-09-24T02:20:56.311Z,12.54
2017-09-24T02:22:06.263Z,12.47
2017-09-24T02:23:16.536Z,12.51
2017-09-24T02:24:28.920Z,12.53
2017-09-24T02:25:39.215Z,12.53
2017-09-24T02:26:49.169Z,12.5
2017-09-24T02:27:59.125Z,12.5
2017-09-24T02:29:09.401Z,12.53
2017-09-24T02:30:19.687Z,12.48
2017-09-24T02:31:29.974Z,12.48
2017-09-24T02:32:39.610Z,12.4
2017-09-24T02:33:49.573Z,12.37
2017-09-24T02:34:59.854Z,12.43
2017-09-24T02:36:10.149Z,12.36
2017-09-24T02:37:20.114Z,12.37
2017-09-24T02:38:30.398Z,12.39
2017-09-24T02:39:40.672Z,12.35
2017-09-24T02:40:50.631Z,12.35
2017-09-24T02:42:00.922Z,12.35
2017-09-24T02:43:10.888Z,12.37
2017-09-24T02:44:20.841Z,12.33
2017-09-24T02:45:31.121Z,12.35
2017-09-24T02:46:41.075Z,12.43
2017-09-24T02:47:51.356Z,12.36
2017-09-24T02:49:01.323Z,12.43
2017-09-24T02:50:11.599Z,12.32
2017-09-24T02:51:21.558Z,12.43
2017-09-24T02:52:31.844Z,12.36
2017-09-24T02:53:41.795Z,12.36
2017-09-24T02:54:51.430Z,12.39
2017-09-24T02:56:01.712Z,12.36
2017-09-24T02:57:11.663Z,12.44
2017-09-24T02:58:21.939Z,12.32
2017-09-24T02:59:32.217Z,12.36
2017-09-24T03:00:42.170Z,12.37
2017-09-24T03:01:52.453Z,12.39
2017-09-24T03:03:02.734Z,12.39
2017-09-24T03:04:12.363Z,12.32
2017-09-24T03:05:22.320Z,12.37
2017-09-24T03:06:32.276Z,12.44
2017-09-24T03:07:42.554Z,12.4
2017-09-24T03:08:52.514Z,12.43
2017-09-24T03:10:02.797Z,12.45
2017-09-24T03:11:12.751Z,12.4
2017-09-24T03:12:22.708Z,12.36
2017-09-24T03:13:32.662Z,12.36
2017-09-24T03:14:42.943Z,12.4
2017-09-24T03:15:52.902Z,12.4
2017-09-24T03:17:03.233Z,12.43
2017-09-24T03:18:13.184Z,12.35
2017-09-24T03:19:23.142Z,12.32
2017-09-24T03:20:33.419Z,12.35
2017-09-24T03:21:43.701Z,12.39
2017-09-24T03:22:53.332Z,12.36
2017-09-24T03:24:03.613Z,12.33
2017-09-24T03:25:13.244Z,12.32
2017-09-24T03:26:23.198Z,12.33
2017-09-24T03:27:33.473Z,12.39
2017-09-24T03:28:43.742Z,12.33
2017-09-24T03:29:53.705Z,12.43
2017-09-24T03:31:03.989Z,12.39
2017-09-24T03:32:13.944Z,12.37
2017-09-24T03:33:23.898Z,12.39
2017-09-24T03:34:34.179Z,12.39
2017-09-24T03:35:43.815Z,12.4
2017-09-24T03:36:54.100Z,12.37
2017-09-24T03:38:04.376Z,12.47
2017-09-24T03:39:14.011Z,12.48
2017-09-24T03:40:24.281Z,12.44
2017-09-24T03:41:34.565Z,12.45
2017-09-24T03:42:44.527Z,12.48
2017-09-24T03:43:54.801Z,12.5
2017-09-24T03:45:05.077Z,12.4
2017-09-24T03:46:15.043Z,12.44
2017-09-24T03:47:24.996Z,12.48
2017-09-24T03:48:35.270Z,12.44
2017-09-24T03:49:45.234Z,12.47
2017-09-24T03:50:55.189Z,12.39
2017-09-24T03:52:05.139Z,12.48
2017-09-24T03:53:15.100Z,12.53
2017-09-24T03:54:25.051Z,12.53
2017-09-24T03:55:35.003Z,12.53
2017-09-24T03:56:45.290Z,12.54
2017-09-24T03:57:54.281Z,12.53
2017-09-24T03:59:04.564Z,12.51
2017-09-24T04:00:14.193Z,12.54
2017-09-24T04:01:24.510Z,12.51
2017-09-24T04:02:34.783Z,12.63
2017-09-24T04:03:44.736Z,12.62
2017-09-24T04:04:54.700Z,12.5
2017-09-24T04:06:04.689Z,12.54
2017-09-24T04:07:13.995Z,12.54
2017-09-24T04:08:24.273Z,12.54
2017-09-24T04:09:34.227Z,12.68
2017-09-24T04:10:44.501Z,12.5
2017-09-24T04:11:54.143Z,12.54
2017-09-24T04:13:04.091Z,12.57
2017-09-24T04:14:14.375Z,12.58
2017-09-24T04:15:24.326Z,12.51
2017-09-24T04:16:34.282Z,12.53
2017-09-24T04:17:44.556Z,12.58
2017-09-24T04:18:54.831Z,12.51
2017-09-24T04:20:04.786Z,12.58
2017-09-24T04:21:15.054Z,12.65
2017-09-24T04:22:25.328Z,12.5
2017-09-24T04:23:34.956Z,12.65
2017-09-24T04:24:44.910Z,12.58
2017-09-24T04:25:55.195Z,12.63
2017-09-24T04:27:05.475Z,12.55
2017-09-24T04:28:15.788Z,12.5
2017-09-24T04:29:25.424Z,12.5
2017-09-24T04:30:35.705Z,12.51
2017-09-24T04:31:45.673Z,12.62
2017-09-24T04:32:55.949Z,12.5
2017-09-24T04:34:06.225Z,12.5
2017-09-24T04:35:16.496Z,12.5
2017-09-24T04:36:26.768Z,12.5
2017-09-24T04:37:36.401Z,12.5
2017-09-24T04:38:46.384Z,12.5
2017-09-24T04:39:56.658Z,12.55
2017-09-24T04:41:05.973Z,12.54
2017-09-24T04:42:16.244Z,12.5
2017-09-24T04:43:26.520Z,12.53
2017-09-24T04:44:36.473Z,12.55
2017-09-24T04:45:46.741Z,12.57
2017-09-24T04:46:56.694Z,12.5
2017-09-24T04:48:06.325Z,12.55
2017-09-24T04:49:16.308Z,12.54
2017-09-24T04:50:26.267Z,12.57
2017-09-24T04:51:36.545Z,12.55
2017-09-24T04:52:46.501Z,12.55
2017-09-24T04:53:56.459Z,12.54
2017-09-24T04:55:06.425Z,12.5
2017-09-24T04:56:16.376Z,12.51
2017-09-24T04:57:26.330Z,12.54
2017-09-24T04:58:36.599Z,12.5
2017-09-24T04:59:46.881Z,12.54
2017-09-24T05:00:56.517Z,12.51
2017-09-24T05:02:06.471Z,12.51
2017-09-24T05:03:16.119Z,12.51
2017-09-24T05:04:26.079Z,12.45
2017-09-24T05:05:36.034Z,12.48
2017-09-24T05:06:46.312Z,12.47
2017-09-24T05:07:56.584Z,12.51
2017-09-24T05:09:06.544Z,12.51
2017-09-24T05:10:16.496Z,12.45
2017-09-24T05:11:26.771Z,12.43
2017-09-24T05:12:36.719Z,12.48
2017-09-24T05:13:46.994Z,12.48
2017-09-24T05:14:56.944Z,12.43
2017-09-24T05:16:07.223Z,12.44
2017-09-24T05:17:17.504Z,12.48
2017-09-24T05:18:27.811Z,12.5
2017-09-24T05:19:38.089Z,12.4
2017-09-24T05:20:48.064Z,12.5
2017-09-24T05:21:58.018Z,12.5
2017-09-24T05:23:08.295Z,12.39
2017-09-24T05:24:18.575Z,12.51
2017-09-24T05:25:28.851Z,12.5
2017-09-24T05:26:39.122Z,12.51
2017-09-24T05:27:48.761Z,12.51
2017-09-24T05:28:58.711Z,12.39
2017-09-24T05:30:09.028Z,12.44
2017-09-24T05:31:19.022Z,12.5
2017-09-24T05:32:29.306Z,12.55
2017-09-24T05:33:39.273Z,12.55
2017-09-24T05:34:49.235Z,12.53
2017-09-24T05:35:58.545Z,12.55
2017-09-24T05:37:08.844Z,12.45
2017-09-24T05:38:19.127Z,12.58
2017-09-24T05:39:29.407Z,12.58
2017-09-24T05:40:39.686Z,12.65
2017-09-24T05:41:49.638Z,12.51
2017-09-24T05:42:59.916Z,12.58
2017-09-24T05:44:10.200Z,12.65
2017-09-24T05:45:19.832Z,12.61
2017-09-24T05:46:29.797Z,12.69
2017-09-24T05:47:39.751Z,12.69
2017-09-24T05:48:50.030Z,12.68
2017-09-24T05:49:59.658Z,12.69
2017-09-24T05:51:09.936Z,12.7
2017-09-24T05:52:20.214Z,12.63
2017-09-24T05:53:30.496Z,12.65
2017-09-24T05:54:40.771Z,12.7
2017-09-24T05:55:50.745Z,12.62
2017-09-24T05:57:00.379Z,12.68
2017-09-24T05:58:10.011Z,12.7
2017-09-24T05:59:20.289Z,12.65
2017-09-24T06:00:30.570Z,12.65
2017-09-24T06:01:40.538Z,12.68
2017-09-24T06:02:50.817Z,12.65
2017-09-24T06:04:00.772Z,12.63
2017-09-24T06:05:10.728Z,12.69
2017-09-24T06:06:20.680Z,12.68
2017-09-24T06:07:30.634Z,12.68
2017-09-24T06:08:40.914Z,12.65
2017-09-24T06:09:51.192Z,12.69
2017-09-24T06:11:01.146Z,12.65
2017-09-24T06:12:11.102Z,12.69
2017-09-24T06:13:21.379Z,12.63
2017-09-24T06:14:31.329Z,12.65
2017-09-24T06:15:41.283Z,12.65
2017-09-24T06:16:51.237Z,12.7
2017-09-24T06:18:01.191Z,12.76
2017-09-24T06:19:11.146Z,12.8
2017-09-24T06:20:21.424Z,12.78
2017-09-24T06:21:31.384Z,12.8
2017-09-24T06:22:41.661Z,12.81
2017-09-24T06:23:51.616Z,12.83
2017-09-24T06:25:01.892Z,12.75
2017-09-24T06:26:12.187Z,12.68
2017-09-24T06:27:22.461Z,12.65
2017-09-24T06:28:32.736Z,12.7
2017-09-24T06:29:42.726Z,12.68
2017-09-24T06:30:53.008Z,12.65
2017-09-24T06:32:02.962Z,12.78
2017-09-24T06:33:12.592Z,12.8
2017-09-24T06:34:22.868Z,12.72
2017-09-24T06:35:33.155Z,12.65
2017-09-24T06:36:42.790Z,12.69
2017-09-24T06:37:52.426Z,12.78
2017-09-24T06:39:02.382Z,12.83
2017-09-24T06:40:12.658Z,12.78
2017-09-24T06:41:22.939Z,12.83
2017-09-24T06:42:33.214Z,12.81
2017-09-24T06:43:43.493Z,12.78
2017-09-24T06:44:53.467Z,12.8
2017-09-24T06:46:03.744Z,12.76
2017-09-24T06:47:13.052Z,12.75
2017-09-24T06:48:23.010Z,12.78
2017-09-24T06:49:32.963Z,12.78
2017-09-24T06:50:42.916Z,12.8
2017-09-24T06:51:52.868Z,12.8
2017-09-24T06:53:02.826Z,12.9
2017-09-24T06:54:12.780Z,12.86
2017-09-24T06:55:22.738Z,12.98
2017-09-24T06:56:33.016Z,12.99
2017-09-24T06:57:43.291Z,13.01
2017-09-24T06:58:53.571Z,13.01
2017-09-24T07:00:03.861Z,13.13
2017-09-24T07:01:13.815Z,13.11
2017-09-24T07:02:23.773Z,13.13
2017-09-24T07:03:33.726Z,13.12
2017-09-24T07:04:44.004Z,13.13
2017-09-24T07:05:53.960Z,13.21
2017-09-24T07:07:04.239Z,13.12
2017-09-24T07:08:14.509Z,13.19
2017-09-24T07:09:24.784Z,13.13
2017-09-24T07:10:34.743Z,13.21
2017-09-24T07:11:44.731Z,13.26
2017-09-24T07:12:55.012Z,13.23
2017-09-24T07:14:04.973Z,13.23
2017-09-24T07:15:15.260Z,13.23
2017-09-24T07:16:24.896Z,13.24
2017-09-24T07:17:35.174Z,13.3
2017-09-24T07:18:44.806Z,13.33
2017-09-24T07:19:54.767Z,13.24
2017-09-24T07:21:05.045Z,13.31
2017-09-24T07:22:15.324Z,13.33
2017-09-24T07:23:25.607Z,13.28
2017-09-24T07:24:35.925Z,13.33
2017-09-24T07:25:45.885Z,13.26
2017-09-24T07:26:55.841Z,13.3
2017-09-24T07:28:05.792Z,13.28
2017-09-24T07:29:16.069Z,13.27
2017-09-24T07:30:26.031Z,13.27
2017-09-24T07:31:36.310Z,13.28
2017-09-24T07:32:46.596Z,13.26
2017-09-24T07:33:56.875Z,13.33
2017-09-24T07:35:06.503Z,13.23
2017-09-24T07:36:16.456Z,13.23
2017-09-24T07:37:26.408Z,13.33
2017-09-24T07:38:36.688Z,13.3
2017-09-24T07:39:46.966Z,13.27
2017-09-24T07:40:56.924Z,13.24
2017-09-24T07:42:06.882Z,13.31
2017-09-24T07:43:17.157Z,13.36
2017-09-24T07:44:27.431Z,13.27
2017-09-24T07:45:37.394Z,13.24
2017-09-24T07:46:47.024Z,13.28
2017-09-24T07:47:56.976Z,13.24
2017-09-24T07:49:06.933Z,13.31
2017-09-24T07:50:16.888Z,13.26
2017-09-24T07:51:27.166Z,13.23
2017-09-24T07:52:37.449Z,13.37
2017-09-24T07:53:47.404Z,13.37
2017-09-24T07:54:57.681Z,13.33
2017-09-24T07:56:07.314Z,13.37
2017-09-24T07:57:17.584Z,13.45
2017-09-24T07:58:27.860Z,13.39
2017-09-24T07:59:38.146Z,13.45
2017-09-24T08:00:48.419Z,13.47
2017-09-24T08:01:58.054Z,13.46
2017-09-24T08:03:07.690Z,13.47
2017-09-24T08:04:17.971Z,13.54
2017-09-24T08:05:28.245Z,13.5
2017-09-24T08:06:38.206Z,13.57
2017-09-24T08:07:48.159Z,13.5
2017-09-24T08:08:58.111Z,13.6
2017-09-24T08:10:08.069Z,13.54
2017-09-24T08:11:18.023Z,13.5
2017-09-24T08:12:27.982Z,13.52
2017-09-24T08:13:38.256Z,13.5
2017-09-24T08:14:47.568Z,13.5
2017-09-24T08:15:57.873Z,13.5
2017-09-24T08:17:07.520Z,13.5
2017-09-24T08:18:17.473Z,13.52
2017-09-24T08:19:27.466Z,13.52
2017-09-24T08:20:37.427Z,13.57
2017-09-24T08:21:47.379Z,13.55
2017-09-24T08:22:56.366Z,13.49
2017-09-24T08:24:06.002Z,13.6
2017-09-24T08:25:15.954Z,13.6
2017-09-24T08:26:25.913Z,13.62
2017-09-24T08:27:36.189Z,13.62
2017-09-24T08:28:46.477Z,13.64
2017-09-24T08:29:56.762Z,13.65
2017-09-24T08:31:06.719Z,13.62
2017-09-24T08:32:16.998Z,13.73
2017-09-24T08:33:27.281Z,13.67
2017-09-24T08:34:37.234Z,13.75
2017-09-24T08:35:47.196Z,13.78
2017-09-24T08:36:57.154Z,13.79
2017-09-24T08:38:07.108Z,13.83
2017-09-24T08:39:17.380Z,13.73
2017-09-24T08:40:27.334Z,13.76
2017-09-24T08:41:37.295Z,13.78
2017-09-24T08:42:47.569Z,13.71
2017-09-24T08:43:57.212Z,13.75
2017-09-24T08:45:07.169Z,13.79
2017-09-24T08:46:17.450Z,13.8
2017-09-24T08:47:27.405Z,13.75
2017-09-24T08:48:37.681Z,13.73
2017-09-24T08:49:47.963Z,13.71
2017-09-24T08:50:58.258Z,13.8
2017-09-24T08:52:08.218Z,13.73
2017-09-24T08:53:18.495Z,13.75
2017-09-24T08:54:28.461Z,13.75
2017-09-24T08:55:38.735Z,13.68
2017-09-24T08:56:49.011Z,13.79
2017-09-24T08:57:58.966Z,13.71
2017-09-24T08:59:08.594Z,13.83
2017-09-24T09:00:18.228Z,13.85
2017-09-24T09:01:28.195Z,13.78
2017-09-24T09:02:38.476Z,13.79
2017-09-24T09:03:48.754Z,13.76
2017-09-24T09:04:58.401Z,13.87
2017-09-24T09:06:08.035Z,13.89
2017-09-24T09:07:17.668Z,13.85
2017-09-24T09:08:27.620Z,13.94
2017-09-24T09:09:37.573Z,13.98
2017-09-24T09:10:47.854Z,13.95
2017-09-24T09:11:58.130Z,13.91
2017-09-24T09:13:08.090Z,13.94
2017-09-24T09:14:18.044Z,13.94
2017-09-24T09:15:28.322Z,13.97
2017-09-24T09:16:38.278Z,13.95
2017-09-24T09:17:48.562Z,13.91
2017-09-24T09:18:58.194Z,14
2017-09-24T09:20:08.473Z,14.01
2017-09-24T09:21:18.426Z,13.98
2017-09-24T09:22:28.702Z,14.07
2017-09-24T09:23:38.663Z,14.07
2017-09-24T09:24:48.940Z,14.01
2017-09-24T09:25:59.217Z,14.01
2017-09-24T09:27:09.191Z,14.16
2017-09-24T09:28:19.462Z,14.08
2017-09-24T09:29:29.748Z,14.13
2017-09-24T09:30:39.708Z,14.07
2017-09-24T09:31:49.664Z,14.07
2017-09-24T09:32:59.944Z,14.07
2017-09-24T09:34:10.220Z,14.13
2017-09-24T09:35:20.172Z,14.18
2017-09-24T09:36:30.444Z,14.22
2017-09-24T09:37:40.077Z,14.15
2017-09-24T09:38:50.359Z,14.22
2017-09-24T09:40:00.634Z,14.23
2017-09-24T09:41:10.267Z,14.31
2017-09-24T09:42:20.225Z,14.3
2017-09-24T09:43:30.182Z,14.34
2017-09-24T09:44:40.463Z,14.33
2017-09-24T09:45:50.417Z,14.36
2017-09-24T09:47:00.696Z,14.41
2017-09-24T09:48:10.662Z,14.36
2017-09-24T09:49:20.938Z,14.34
2017-09-24T09:50:30.897Z,14.44
2017-09-24T09:51:40.545Z,14.49
2017-09-24T09:52:49.854Z,14.59
2017-09-24T09:53:59.804Z,14.56
2017-09-24T09:55:09.441Z,14.55
2017-09-24T09:56:19.721Z,14.56
2017-09-24T09:57:30.003Z,14.56
2017-09-24T09:58:39.959Z,14.55
2017-09-24T09:59:50.241Z,14.59
2017-09-24T10:01:00.523Z,14.55
2017-09-24T10:02:10.801Z,14.52
2017-09-24T10:03:21.089Z,14.56
2017-09-24T10:04:31.043Z,14.56
2017-09-24T10:05:41.331Z,14.51
2017-09-24T10:06:51.305Z,14.58
2017-09-24T10:08:01.603Z,14.45
2017-09-24T10:09:11.555Z,14.44
2017-09-24T10:10:21.537Z,14.43
2017-09-24T10:11:31.819Z,14.4
2017-09-24T10:12:42.100Z,14.49
2017-09-24T10:13:52.380Z,14.38
2017-09-24T10:15:02.338Z,14.41
2017-09-24T10:16:12.293Z,14.49
2017-09-24T10:17:21.929Z,14.52
2017-09-24T10:18:31.883Z,14.44
2017-09-24T10:19:41.840Z,14.59
2017-09-24T10:20:52.119Z,14.43
2017-09-24T10:22:02.075Z,14.34
2017-09-24T10:23:12.360Z,14.36
2017-09-24T10:24:22.318Z,14.38
2017-09-24T10:25:32.268Z,14.34
2017-09-24T10:26:42.543Z,14.33
2017-09-24T10:27:52.819Z,14.34
2017-09-24T10:29:03.095Z,14.41
2017-09-24T10:30:13.376Z,14.43
2017-09-24T10:31:23.333Z,14.41
2017-09-24T10:32:33.609Z,14.38
2017-09-24T10:33:43.564Z,14.38
2017-09-24T10:34:53.558Z,14.36
2017-09-24T10:36:03.513Z,14.45
2017-09-24T10:37:13.467Z,14.34
2017-09-24T10:38:23.103Z,14.45
2017-09-24T10:39:33.064Z,14.36
2017-09-24T10:40:42.697Z,14.36
2017-09-24T10:41:52.974Z,14.4
2017-09-24T10:43:03.272Z,14.28
2017-09-24T10:44:13.554Z,14.33
2017-09-24T10:45:23.190Z,14.38
2017-09-24T10:46:33.475Z,14.34
2017-09-24T10:47:43.426Z,14.41
2017-09-24T10:48:53.386Z,14.31
2017-09-24T10:50:03.016Z,14.37
2017-09-24T10:51:12.651Z,14.44
2017-09-24T10:52:22.603Z,14.43
2017-09-24T10:53:32.242Z,14.38
2017-09-24T10:54:42.193Z,14.31
2017-09-24T10:55:52.474Z,14.36
2017-09-24T10:57:02.430Z,14.4
2017-09-24T10:58:12.712Z,14.38
2017-09-24T10:59:22.350Z,14.45
2017-09-24T11:00:32.304Z,14.41
2017-09-24T11:01:42.578Z,14.55
2017-09-24T11:02:52.853Z,14.63
2017-09-24T11:04:02.808Z,14.56
2017-09-24T11:05:12.450Z,14.56
2017-09-24T11:06:22.723Z,14.55
2017-09-24T11:07:32.360Z,14.58
2017-09-24T11:08:42.635Z,14.52
2017-09-24T11:09:52.950Z,14.61
2017-09-24T11:11:02.589Z,14.58
2017-09-24T11:12:12.872Z,14.7
2017-09-24T11:13:22.505Z,14.63
2017-09-24T11:14:32.461Z,14.73
2017-09-24T11:15:42.415Z,14.74
2017-09-24T11:16:52.696Z,14.74
2017-09-24T11:18:02.656Z,14.71
2017-09-24T11:19:12.613Z,14.77
2017-09-24T11:20:22.582Z,14.79
2017-09-24T11:21:32.868Z,14.71
2017-09-24T11:22:42.498Z,14.79
2017-09-24T11:23:52.776Z,14.74
2017-09-24T11:25:03.060Z,14.78
2017-09-24T11:26:12.696Z,14.81
2017-09-24T11:27:22.651Z,14.73
2017-09-24T11:28:32.611Z,14.77
2017-09-24T11:29:42.603Z,14.77
2017-09-24T11:30:52.878Z,14.77
2017-09-24T11:32:03.160Z,14.73
2017-09-24T11:33:12.793Z,14.7
2017-09-24T11:34:23.079Z,14.77
2017-09-24T11:35:33.039Z,14.74
2017-09-24T11:36:42.993Z,14.7
2017-09-24T11:37:52.625Z,14.77
2017-09-24T11:39:02.583Z,14.77
2017-09-24T11:40:12.873Z,14.73
2017-09-24T11:41:22.509Z,14.71
2017-09-24T11:42:32.480Z,14.74
2017-09-24T11:43:42.438Z,14.74
2017-09-24T11:44:52.394Z,14.73
2017-09-24T11:46:02.690Z,14.73
2017-09-24T11:47:12.320Z,14.93
2017-09-24T11:48:22.276Z,14.85
2017-09-24T11:49:32.232Z,14.77
2017-09-24T11:50:42.529Z,14.71
2017-09-24T11:51:52.802Z,14.87
2017-09-24T11:53:02.761Z,14.73
2017-09-24T11:54:12.721Z,14.85
2017-09-24T11:55:23.004Z,14.7
2017-09-24T11:56:32.637Z,14.87
2017-09-24T11:57:42.596Z,14.86
2017-09-24T11:58:52.558Z,14.92
2017-09-24T12:00:02.839Z,14.9
2017-09-24T12:01:13.115Z,14.87
2017-09-24T12:02:23.395Z,14.85
2017-09-24T12:03:33.675Z,14.81
2017-09-24T12:04:43.957Z,14.85
2017-09-24T12:05:53.920Z,14.82
2017-09-24T12:07:03.233Z,14.82
2017-09-24T12:08:13.189Z,14.82
2017-09-24T12:09:23.477Z,14.73
2017-09-24T12:10:33.436Z,14.77
2017-09-24T12:11:43.719Z,14.73
2017-09-24T12:12:53.356Z,14.74
2017-09-24T12:14:03.311Z,14.86
2017-09-24T12:15:12.623Z,14.73
2017-09-24T12:16:21.613Z,14.73
2017-09-24T12:17:31.888Z,14.78
2017-09-24T12:18:42.164Z,14.78
2017-09-24T12:19:52.122Z,14.78
2017-09-24T12:21:02.077Z,14.79
2017-09-24T12:22:12.351Z,14.7
2017-09-24T12:23:21.995Z,14.68
2017-09-24T12:24:32.272Z,14.77
2017-09-24T12:25:42.228Z,14.74
2017-09-24T12:26:52.506Z,14.74
2017-09-24T12:28:02.466Z,14.68
2017-09-24T12:29:12.746Z,14.71
2017-09-24T12:30:23.025Z,14.67
2017-09-24T12:31:32.676Z,14.7
2017-09-24T12:32:42.955Z,14.71
2017-09-24T12:33:52.917Z,14.58
2017-09-24T12:35:03.187Z,14.55
2017-09-24T12:36:12.820Z,14.61
2017-09-24T12:37:23.094Z,14.67
2017-09-24T12:38:33.419Z,14.49
2017-09-24T12:39:43.054Z,14.62
2017-09-24T12:40:53.011Z,14.58
2017-09-24T12:42:02.650Z,14.58
2017-09-24T12:43:12.287Z,14.61
2017-09-24T12:44:22.238Z,14.59
2017-09-24T12:45:32.189Z,14.53
2017-09-24T12:46:42.158Z,14.59
2017-09-24T12:47:52.438Z,14.62
2017-09-24T12:49:02.396Z,14.61
2017-09-24T12:50:12.674Z,14.59
2017-09-24T12:51:22.952Z,14.62
2017-09-24T12:52:32.946Z,14.62
2017-09-24T12:53:42.901Z,14.48
2017-09-24T12:54:53.182Z,14.56
2017-09-24T12:56:02.498Z,14.66
2017-09-24T12:57:12.469Z,14.56
2017-09-24T12:58:22.098Z,14.52
2017-09-24T12:59:32.059Z,14.52
2017-09-24T13:00:42.013Z,14.49
2017-09-24T13:01:51.972Z,14.62
2017-09-24T13:03:01.926Z,14.56
2017-09-24T13:04:11.884Z,14.52
2017-09-24T13:05:21.515Z,14.49
2017-09-24T13:06:31.478Z,14.45
2017-09-24T13:07:40.786Z,14.56
2017-09-24T13:08:51.076Z,14.48
2017-09-24T13:10:00.714Z,14.51
2017-09-24T13:11:10.670Z,14.38
2017-09-24T13:12:20.953Z,14.44
2017-09-24T13:13:31.229Z,14.51
2017-09-24T13:14:41.507Z,14.4
2017-09-24T13:15:51.469Z,14.38
2017-09-24T13:17:01.425Z,14.49
2017-09-24T13:18:11.377Z,14.44
2017-09-24T13:19:21.334Z,14.36
2017-09-24T13:20:31.645Z,14.41
2017-09-24T13:21:41.924Z,14.44
2017-09-24T13:22:51.561Z,14.52
2017-09-24T13:24:01.517Z,14.37
2017-09-24T13:25:11.471Z,14.34
2017-09-24T13:26:21.753Z,14.45
2017-09-24T13:27:31.713Z,14.45
2017-09-24T13:28:41.671Z,14.34
2017-09-24T13:29:51.951Z,14.4
2017-09-24T13:31:01.902Z,14.37
2017-09-24T13:32:12.180Z,14.4
2017-09-24T13:33:22.136Z,14.49
2017-09-24T13:34:32.420Z,14.45
2017-09-24T13:35:42.690Z,14.49
2017-09-24T13:36:52.992Z,14.44
2017-09-24T13:38:02.955Z,14.4
2017-09-24T13:39:12.911Z,14.45
2017-09-24T13:40:22.869Z,14.38
2017-09-24T13:41:33.149Z,14.36
2017-09-24T13:42:42.781Z,14.34
2017-09-24T13:43:52.739Z,14.43
2017-09-24T13:45:03.017Z,14.36
2017-09-24T13:46:13.008Z,14.31
2017-09-24T13:47:22.647Z,14.38
2017-09-24T13:48:32.606Z,14.38
2017-09-24T13:49:42.919Z,14.4
2017-09-24T13:50:52.874Z,14.37
2017-09-24T13:52:03.182Z,14.28
2017-09-24T13:53:13.137Z,14.36
2017-09-24T13:54:23.422Z,14.41
2017-09-24T13:55:33.704Z,14.36
2017-09-24T13:56:43.991Z,14.4
2017-09-24T13:57:53.955Z,14.41
2017-09-24T13:59:04.262Z,14.43
2017-09-24T14:00:14.544Z,14.36
2017-09-24T14:01:24.505Z,14.31
2017-09-24T14:02:34.140Z,14.43
2017-09-24T14:03:44.417Z,14.33
2017-09-24T14:04:54.693Z,14.33
2017-09-24T14:06:04.330Z,14.33
2017-09-24T14:07:13.966Z,14.36
2017-09-24T14:08:23.917Z,14.28
2017-09-24T14:09:34.197Z,14.28
2017-09-24T14:10:44.474Z,14.34
2017-09-24T14:11:54.753Z,14.25
2017-09-24T14:13:05.031Z,14.3
2017-09-24T14:14:14.987Z,14.34
2017-09-24T14:15:24.947Z,14.28
2017-09-24T14:16:34.899Z,14.28
2017-09-24T14:17:44.859Z,14.26
2017-09-24T14:18:54.176Z,14.31
2017-09-24T14:20:04.136Z,14.34
2017-09-24T14:21:13.768Z,14.3
2017-09-24T14:22:23.401Z,14.23
2017-09-24T14:23:33.042Z,14.26
2017-09-24T14:24:43.002Z,14.25
2017-09-24T14:25:52.634Z,14.26
2017-09-24T14:27:02.589Z,14.2
2017-09-24T14:28:12.866Z,14.19
2017-09-24T14:29:22.817Z,14.23
2017-09-24T14:30:31.857Z,14.26
2017-09-24T14:31:42.139Z,14.19
2017-09-24T14:32:52.100Z,14.25
2017-09-24T14:34:01.119Z,14.22
2017-09-24T14:35:11.078Z,14.28
2017-09-24T14:36:21.350Z,14.22
2017-09-24T14:37:31.631Z,14.28
2017-09-24T14:38:41.582Z,14.25
2017-09-24T14:39:51.536Z,14.25
2017-09-24T14:41:01.813Z,14.22
2017-09-24T14:42:12.092Z,14.18
2017-09-24T14:43:22.047Z,14.16
2017-09-24T14:44:32.002Z,14.18
2017-09-24T14:45:41.317Z,14.15
2017-09-24T14:46:51.590Z,14.15
2017-09-24T14:48:01.224Z,14.18
2017-09-24T14:49:11.501Z,14.16
2017-09-24T14:50:21.458Z,14.16
2017-09-24T14:51:31.412Z,14.16
2017-09-24T14:52:41.692Z,14.12
2017-09-24T14:53:51.651Z,14.07
2017-09-24T14:55:01.607Z,14.16
2017-09-24T14:56:11.564Z,14.05
2017-09-24T14:57:21.200Z,14.11
2017-09-24T14:58:31.158Z,14.13
2017-09-24T14:59:41.437Z,14.07
2017-09-24T15:00:51.712Z,14.08
2017-09-24T15:02:01.670Z,14.04
2017-09-24T15:03:11.940Z,14.07
2017-09-24T15:04:22.226Z,14.05
2017-09-24T15:05:32.505Z,14.07